Time;durP1;ratioP1;P1;durP2;ratioP2;P2;SDS_P1;SDS_P2;PMS_P1;PMS_P2;Temp;Humidity;BMP_temperature;BMP_pressure;BME280_temperature;BME280_humidity;BME280_pressure;Samples;Min_cycle;Max_cycle;Signal;HPM_P1;HPM_P2
2023/11/13 00:06:25;;;;;;;24.90;15.18;;;5.80;99.90;;;;;;20960572;28;20088;-85
2023/11/13 00:16:25;;;;;;;23.42;14.75;;;5.70;99.90;;;;;;20990658;28;20043;-85
2023/11/13 00:26:26;;;;;;;24.07;14.77;;;5.80;99.90;;;;;;20935342;28;20044;-84
2023/11/13 00:36:27;;;;;;;24.95;14.50;;;5.90;99.90;;;;;;20999025;28;20482;-84
2023/11/13 00:46:28;;;;;;;24.58;14.05;;;5.90;99.90;;;;;;20966571;28;20160;-85
2023/11/13 00:56:28;;;;;;;27.33;14.02;;;5.90;99.90;;;;;;20959843;28;20046;-84
2023/11/13 01:06:29;;;;;;;23.60;14.45;;;5.80;99.90;;;;;;20993276;28;20036;-84
2023/11/13 01:16:32;;;;;;;21.70;13.57;;;5.90;99.90;;;;;;20988711;28;20036;-84
2023/11/13 01:26:33;;;;;;;19.58;12.63;;;5.80;99.90;;;;;;20990187;28;20066;-84
2023/11/13 01:36:33;;;;;;;20.05;11.82;;;5.80;99.90;;;;;;20978677;28;20044;-85
2023/11/13 01:46:35;;;;;;;21.45;11.82;;;5.80;99.90;;;;;;20990202;28;20499;-85
2023/11/13 01:56:36;;;;;;;21.70;12.18;;;5.80;99.90;;;;;;20950710;28;20074;-84
2023/11/13 02:06:37;;;;;;;18.35;10.85;;;5.80;99.90;;;;;;20907466;28;20033;-84
2023/11/13 02:16:40;;;;;;;18.83;11.27;;;5.90;99.90;;;;;;20907956;28;20110;-84
2023/11/13 02:26:43;;;;;;;19.80;11.90;;;5.90;99.90;;;;;;20902778;28;20125;-85
2023/11/13 02:36:47;;;;;;;20.00;10.85;;;5.90;99.90;;;;;;20905697;28;20101;-84
2023/11/13 02:46:50;;;;;;;17.52;9.95;;;6.00;99.90;;;;;;20905593;28;20036;-84
2023/11/13 02:56:51;;;;;;;19.25;10.73;;;6.00;99.90;;;;;;20927889;28;20044;-84
2023/11/13 03:06:51;;;;;;;19.35;10.25;;;6.00;99.90;;;;;;20986554;28;20055;-84
2023/11/13 03:16:52;;;;;;;18.05;10.60;;;6.00;99.90;;;;;;20993630;28;20059;-84
2023/11/13 03:26:57;;;;;;;18.70;11.45;;;6.10;99.90;;;;;;20979342;28;20494;-84
2023/11/13 03:36:58;;;;;;;19.00;11.35;;;6.30;99.90;;;;;;20964425;28;20036;-85
2023/11/13 03:46:59;;;;;;;18.90;10.65;;;6.30;99.90;;;;;;20989824;28;20032;-84
2023/11/13 03:56:59;;;;;;;19.20;10.48;;;6.30;99.90;;;;;;21001347;28;20534;-83
2023/11/13 04:07:00;;;;;;;18.23;10.70;;;6.40;99.90;;;;;;20998756;28;20044;-84
2023/11/13 04:17:01;;;;;;;18.35;11.13;;;6.40;99.90;;;;;;20976699;28;20040;-84
2023/11/13 04:27:01;;;;;;;18.17;10.38;;;6.50;99.90;;;;;;20971999;28;20051;-84
2023/11/13 04:37:02;;;;;;;19.13;10.57;;;6.50;99.90;;;;;;20971661;28;20036;-84
2023/11/13 04:47:03;;;;;;;18.48;10.32;;;6.60;99.90;;;;;;20995762;28;20471;-84
2023/11/13 04:57:03;;;;;;;20.05;10.80;;;6.60;99.90;;;;;;20999769;28;20547;-84
2023/11/13 05:07:04;;;;;;;19.30;11.13;;;6.60;99.90;;;;;;20980174;28;20207;-84
2023/11/13 05:17:05;;;;;;;21.42;11.48;;;6.60;99.90;;;;;;20975906;28;20055;-84
2023/11/13 05:27:05;;;;;;;23.40;12.70;;;6.70;99.90;;;;;;20985899;28;20052;-85
2023/11/13 05:37:06;;;;;;;24.03;13.00;;;6.80;99.90;;;;;;20985411;28;20032;-85
2023/11/13 05:47:06;;;;;;;27.10;13.57;;;6.80;99.90;;;;;;21011288;28;20462;-84
2023/11/13 05:57:07;;;;;;;25.83;13.70;;;6.90;99.90;;;;;;21019352;28;20064;-85
2023/11/13 06:07:08;;;;;;;29.70;14.13;;;7.10;99.90;;;;;;20966136;28;20439;-85
2023/11/13 06:17:08;;;;;;;28.20;14.03;;;7.10;99.90;;;;;;20920271;28;20164;-85
2023/11/13 06:27:09;;;;;;;28.08;13.45;;;7.10;99.90;;;;;;20907187;28;20542;-85
2023/11/13 06:37:13;;;;;;;29.85;14.55;;;7.10;99.90;;;;;;20913997;28;20102;-84
2023/11/13 06:47:13;;;;;;;33.05;14.82;;;7.40;99.90;;;;;;20915384;28;20517;-83
2023/11/13 06:57:14;;;;;;;27.10;14.70;;;7.30;99.90;;;;;;20945105;28;20382;-84
2023/11/13 07:07:15;;;;;;;28.13;14.45;;;7.40;99.90;;;;;;21031471;28;20058;-83
2023/11/13 07:17:16;;;;;;;31.80;13.65;;;7.30;99.90;;;;;;21017612;28;20050;-83
2023/11/13 07:27:17;;;;;;;23.92;12.40;;;7.40;99.90;;;;;;21024615;28;20040;-83
2023/11/13 07:37:18;;;;;;;26.67;11.43;;;7.60;99.90;;;;;;21027333;28;20050;-84
2023/11/13 07:47:19;;;;;;;21.42;10.63;;;7.80;99.90;;;;;;21026667;28;20612;-83
2023/11/13 07:57:19;;;;;;;19.58;10.95;;;8.00;99.90;;;;;;20971709;28;20086;-86
2023/11/13 08:07:20;;;;;;;19.58;10.15;;;8.20;99.90;;;;;;21009892;28;20041;-83
2023/11/13 08:17:20;;;;;;;19.25;9.27;;;8.50;99.90;;;;;;21007765;28;20064;-83
2023/11/13 08:27:23;;;;;;;21.00;10.00;;;8.70;99.90;;;;;;21016797;28;20652;-83
2023/11/13 08:37:25;;;;;;;18.52;9.43;;;8.80;99.90;;;;;;20981178;28;20044;-82
2023/11/13 08:47:27;;;;;;;19.45;10.43;;;9.10;99.90;;;;;;21033224;28;20040;-83
2023/11/13 08:57:29;;;;;;;18.67;10.85;;;9.30;99.90;;;;;;21021621;28;20478;-84
2023/11/13 09:07:33;;;;;;;22.75;11.48;;;9.50;99.90;;;;;;21017661;28;20047;-83
2023/11/13 09:17:35;;;;;;;24.38;11.30;;;9.90;99.90;;;;;;21003194;28;20101;-85
2023/11/13 09:27:39;;;;;;;21.80;10.13;;;10.10;99.90;;;;;;21001303;28;20469;-89
2023/11/13 09:37:40;;;;;;;18.65;8.25;;;10.30;99.90;;;;;;21016165;28;20046;-84
2023/11/13 09:47:44;;;;;;;12.13;5.03;;;10.40;99.90;;;;;;21019568;28;20176;-83
2023/11/13 09:57:46;;;;;;;11.73;4.70;;;10.40;99.90;;;;;;21006407;28;20135;-85
2023/11/13 10:07:48;;;;;;;7.72;2.83;;;10.30;99.90;;;;;;21005421;28;20450;-82
2023/11/13 10:17:49;;;;;;;10.63;2.70;;;10.40;99.90;;;;;;20987706;28;20032;-82
2023/11/13 10:27:58;;;;;;;7.97;2.70;;;10.30;99.90;;;;;;21008317;28;20044;-83
2023/11/13 10:37:59;;;;;;;8.18;2.80;;;10.40;99.90;;;;;;20986645;28;20035;-82
2023/11/13 10:48:00;;;;;;;5.90;2.92;;;10.30;99.90;;;;;;20992795;28;20067;-83
2023/11/13 10:58:00;;;;;;;8.10;3.33;;;10.40;99.90;;;;;;20970569;28;20600;-82
2023/11/13 11:08:02;;;;;;;10.98;3.10;;;10.50;99.90;;;;;;20937140;28;20064;-80
2023/11/13 11:18:12;;;;;;;6.13;3.15;;;10.50;99.90;;;;;;20914514;28;20475;-83
2023/11/13 11:28:41;;;;;;;7.70;4.40;;;10.60;99.90;;;;;;20917289;28;20064;-83
2023/11/13 11:38:41;;;;;;;9.02;5.72;;;10.70;99.90;;;;;;20909821;28;20045;-83
2023/11/13 11:48:42;;;;;;;11.90;6.60;;;11.10;99.90;;;;;;20920593;28;20048;-83
2023/11/13 11:58:48;;;;;;;11.95;7.22;;;11.20;99.90;;;;;;20900778;28;20745;-84
2023/11/13 12:08:49;;;;;;;14.95;8.45;;;11.50;99.90;;;;;;20921517;28;20087;-84
2023/11/13 12:18:50;;;;;;;17.00;8.02;;;11.80;99.90;;;;;;20895097;28;20230;-84
2023/11/13 12:28:51;;;;;;;18.52;7.45;;;12.00;99.90;;;;;;20925297;28;20029;-83
2023/11/13 12:38:56;;;;;;;20.20;7.28;;;12.40;99.90;;;;;;20900675;28;20464;-84
2023/11/13 12:49:00;;;;;;;13.45;6.32;;;12.90;99.90;;;;;;20901852;28;20342;-84
2023/11/13 12:59:07;;;;;;;10.98;5.25;;;13.30;99.90;;;;;;20960908;28;20513;-82
2023/11/13 13:09:13;;;;;;;16.77;5.00;;;13.70;99.90;;;;;;20993355;28;20028;-83
2023/11/13 13:19:17;;;;;;;15.88;4.78;;;14.00;99.90;;;;;;21008474;28;20047;-82
2023/11/13 13:29:20;;;;;;;14.93;3.60;;;14.30;99.90;;;;;;21007904;28;20036;-82
2023/11/13 13:39:23;;;;;;;11.15;3.80;;;14.30;99.90;;;;;;21013826;28;20040;-81
2023/11/13 13:49:24;;;;;;;13.38;2.75;;;14.70;99.90;;;;;;21005332;28;20031;-83
2023/11/13 13:59:25;;;;;;;20.27;3.10;;;14.90;99.90;;;;;;21020769;28;20048;-82
2023/11/13 14:09:26;;;;;;;24.70;3.70;;;14.90;99.90;;;;;;21004266;28;20296;-82
2023/11/13 14:19:27;;;;;;;20.58;4.20;;;14.90;76.20;;;;;;21011396;28;20071;-81
2023/11/13 14:29:29;;;;;;;37.00;5.25;;;14.80;59.80;;;;;;21006748;28;20407;-82
2023/11/13 14:39:30;;;;;;;18.63;3.80;;;14.80;37.10;;;;;;21019176;28;20116;-82
2023/11/13 14:49:31;;;;;;;17.83;3.13;;;14.50;48.80;;;;;;20999290;28;20032;-82
2023/11/13 14:59:31;;;;;;;32.80;6.10;;;12.60;57.80;;;;;;21002408;28;20044;-82
2023/11/13 15:09:32;;;;;;;42.13;6.10;;;12.70;99.90;;;;;;21003499;28;20039;-82
2023/11/13 15:19:34;;;;;;;41.47;6.82;;;13.00;99.90;;;;;;21013107;28;20534;-81
2023/11/13 15:29:34;;;;;;;50.22;7.40;;;13.20;99.90;;;;;;21013122;28;20062;-82
2023/11/13 15:39:36;;;;;;;41.90;7.40;;;13.30;99.90;;;;;;21011353;28;20044;-82
2023/11/13 15:49:37;;;;;;;39.60;6.55;;;13.20;99.90;;;;;;21005787;28;20032;-84
2023/11/13 15:59:38;;;;;;;21.38;4.38;;;13.20;45.50;;;;;;20985163;28;20137;-82
2023/11/13 16:09:39;;;;;;;18.73;2.33;;;13.00;6.50;;;;;;20929026;28;20118;-84
2023/11/13 16:19:40;;;;;;;14.10;2.30;;;12.80;1.00;;;;;;20929339;28;20032;-84
2023/11/13 16:29:41;;;;;;;15.77;2.35;;;12.60;1.00;;;;;;20929478;28;23062;-83
2023/11/13 16:39:41;;;;;;;23.48;3.47;;;12.40;1.00;;;;;;20937322;28;20045;-83
2023/11/13 16:49:42;;;;;;;13.13;2.03;;;12.40;1.00;;;;;;20919490;28;20041;-83
2023/11/13 16:59:43;;;;;;;13.60;1.75;;;12.50;1.00;;;;;;20917137;28;20051;-84
2023/11/13 17:09:44;;;;;;;10.25;2.55;;;12.40;1.00;;;;;;21001254;28;20039;-83
2023/11/13 17:19:45;;;;;;;18.25;3.47;;;12.30;1.00;;;;;;21009286;28;20040;-84
2023/11/13 17:29:46;;;;;;;20.00;3.25;;;12.50;1.00;;;;;;20977217;28;20036;-82
2023/11/13 17:40:08;;;;;;;28.10;4.72;;;12.60;1.00;;;;;;20964868;28;20036;-85
2023/11/13 17:50:10;;;;;;;28.27;5.47;;;12.60;1.00;;;;;;20985091;28;20040;-83
2023/11/13 18:00:11;;;;;;;27.65;5.65;;;12.80;1.00;;;;;;20972923;28;20055;-82
2023/11/13 18:10:15;;;;;;;25.88;4.18;;;12.90;1.00;;;;;;20984590;28;20038;-83
2023/11/13 18:20:18;;;;;;;24.30;4.07;;;13.00;1.00;;;;;;20983571;28;20106;-83
2023/11/13 18:30:19;;;;;;;29.65;4.28;;;13.00;1.00;;;;;;21007782;28;20068;-84
2023/11/13 18:40:19;;;;;;;29.75;4.82;;;12.90;1.00;;;;;;20960318;28;20046;-83
2023/11/13 18:50:21;;;;;;;28.20;4.67;;;13.00;1.00;;;;;;20970312;28;20666;-86
2023/11/13 19:00:22;;;;;;;19.75;3.85;;;13.00;1.00;;;;;;20995925;28;20428;-83
2023/11/13 19:10:22;;;;;;;28.52;5.20;;;13.10;1.00;;;;;;20967525;28;20480;-83
2023/11/13 19:20:25;;;;;;;27.17;4.47;;;13.10;1.00;;;;;;20983988;28;20040;-84
2023/11/13 19:30:26;;;;;;;26.60;4.57;;;13.20;1.00;;;;;;20969211;28;20500;-81
2023/11/13 19:40:27;;;;;;;29.83;4.95;;;13.20;1.00;;;;;;20977842;28;20036;-82
2023/11/13 19:50:29;;;;;;;28.73;4.43;;;13.10;1.00;;;;;;20986248;28;20528;-82
2023/11/13 20:00:29;;;;;;;37.70;5.32;;;13.00;1.00;;;;;;20983289;28;20064;-81
2023/11/13 20:10:31;;;;;;;34.20;6.00;;;13.00;1.00;;;;;;20989585;28;20101;-81
2023/11/13 20:20:31;;;;;;;30.50;4.72;;;13.10;1.00;;;;;;20980336;28;20040;-82
2023/11/13 20:30:32;;;;;;;25.80;4.57;;;13.10;1.00;;;;;;20986929;28;20028;-81
2023/11/13 20:40:34;;;;;;;30.50;4.35;;;13.10;1.00;;;;;;21000752;28;20051;-83
2023/11/13 20:50:36;;;;;;;25.02;4.82;;;13.10;1.00;;;;;;21012659;28;20503;-83
2023/11/13 21:00:36;;;;;;;33.72;4.68;;;13.10;1.00;;;;;;21011757;28;20040;-83
2023/11/13 21:10:37;;;;;;;30.98;5.35;;;13.30;1.00;;;;;;20982026;28;20147;-83
2023/11/13 21:20:38;;;;;;;32.55;4.47;;;13.30;1.00;;;;;;20988769;28;20507;-84
2023/11/13 21:30:40;;;;;;;28.42;4.03;;;13.30;1.00;;;;;;20989734;28;20049;-83
2023/11/13 21:40:42;;;;;;;26.88;4.03;;;13.20;1.00;;;;;;21004429;28;20375;-83
2023/11/13 21:50:42;;;;;;;25.77;4.00;;;13.30;1.00;;;;;;21006274;28;20126;-83
2023/11/13 22:00:43;;;;;;;21.15;4.30;;;13.30;1.00;;;;;;20992533;28;20096;-84
2023/11/13 22:10:45;;;;;;;31.00;3.65;;;13.40;1.00;;;;;;20974859;28;20028;-83
2023/11/13 22:20:45;;;;;;;27.52;4.30;;;13.30;1.00;;;;;;20977693;28;20045;-84
2023/11/13 22:30:46;;;;;;;29.58;4.57;;;13.30;1.00;;;;;;20982216;28;20098;-83
2023/11/13 22:40:46;;;;;;;28.65;4.47;;;13.30;1.00;;;;;;20967999;28;20045;-83
2023/11/13 22:50:47;;;;;;;28.30;5.32;;;13.20;1.00;;;;;;20962561;28;20644;-83
2023/11/13 23:00:51;;;;;;;40.20;6.20;;;13.40;1.00;;;;;;20962089;28;20043;-83
2023/11/13 23:10:52;;;;;;;27.38;5.07;;;13.40;1.00;;;;;;20973309;28;20514;-85
2023/11/13 23:20:52;;;;;;;27.77;4.30;;;13.50;1.00;;;;;;20969108;28;20701;-82
2023/11/13 23:30:53;;;;;;;35.05;5.95;;;13.50;1.00;;;;;;20963006;28;20461;-84
2023/11/13 23:40:54;;;;;;;27.67;4.00;;;13.50;1.00;;;;;;20976039;28;20376;-84
2023/11/13 23:50:54;;;;;;;35.88;5.75;;;13.50;1.00;;;;;;20999098;28;20455;-84
